createdAt,value
2022-09-05T00:01:29.582Z,4.03
2022-09-05T00:04:24.749Z,3.20
2022-09-05T00:07:03.508Z,3.95
2022-09-05T00:10:01.936Z,3.83
2022-09-05T00:12:35.465Z,4.60
2022-09-05T00:15:18.979Z,4.40
2022-09-05T00:21:21.403Z,5.70
2022-09-05T00:24:20.228Z,3.53
2022-09-05T00:24:25.045Z,3.55
2022-09-05T00:26:58.105Z,3.90
2022-09-05T00:31:07.460Z,3.50
2022-09-05T00:32:44.140Z,3.35
2022-09-05T00:35:29.420Z,4.75
2022-09-05T00:37:59.826Z,5.20
2022-09-05T00:40:31.490Z,4.75
2022-09-05T00:43:03.173Z,4.60
2022-09-05T00:45:36.188Z,4.40
2022-09-05T00:48:15.305Z,4.80
2022-09-05T00:51:02.690Z,4.15
2022-09-05T00:53:40.051Z,3.45
2022-09-05T00:56:21.256Z,4.78
2022-09-05T00:59:05.031Z,3.30
2022-09-05T01:01:41.280Z,3.20
2022-09-05T01:04:24.861Z,3.42
2022-09-05T01:07:33.104Z,4.72
2022-09-05T01:10:23.768Z,4.82
2022-09-05T01:13:05.313Z,3.20
2022-09-05T01:15:41.833Z,5.50
2022-09-05T01:18:25.335Z,3.70
2022-09-05T01:21:19.246Z,3.22
2022-09-05T01:24:11.331Z,4.15
2022-09-05T01:26:58.597Z,4.60
2022-09-05T01:29:35.828Z,5.40
2022-09-05T01:32:16.419Z,6.40
2022-09-05T01:34:57.489Z,4.18
2022-09-05T01:37:34.270Z,3.65
2022-09-05T01:40:16.702Z,3.70
2022-09-05T01:42:58.621Z,5.88
2022-09-05T01:45:39.775Z,3.45
2022-09-05T01:48:14.772Z,4.50
2022-09-05T01:50:51.618Z,6.53
2022-09-05T01:53:34.534Z,3.65
2022-09-05T01:58:59.425Z,4.60
2022-09-05T02:01:42.471Z,4.40
2022-09-05T02:04:43.597Z,3.42
2022-09-05T02:07:31.019Z,7.78
2022-09-05T02:10:41.899Z,5.35
2022-09-05T02:13:31.960Z,4.53
2022-09-05T02:16:05.378Z,3.97
2022-09-05T02:18:48.419Z,3.97
2022-09-05T02:21:25.062Z,4.20
2022-09-05T02:24:03.692Z,3.42
2022-09-05T02:26:37.933Z,4.65
2022-09-05T02:29:29.504Z,5.50
2022-09-05T02:32:04.247Z,3.50
2022-09-05T02:34:42.745Z,3.50
2022-09-05T02:37:35.788Z,5.00
2022-09-05T02:45:10.557Z,3.67
2022-09-05T02:45:12.661Z,3.97
2022-09-05T02:46:09.487Z,3.78
2022-09-05T02:48:51.349Z,4.07
2022-09-05T02:57:23.254Z,5.55
2022-09-05T02:57:38.338Z,4.65
2022-09-05T02:57:42.127Z,5.95
2022-09-05T03:00:14.071Z,4.35
2022-09-05T03:03:05.402Z,3.45
2022-09-05T03:05:38.309Z,5.28
2022-09-05T03:08:28.004Z,3.50
2022-09-05T03:11:30.280Z,5.50
2022-09-05T03:14:19.912Z,3.97
2022-09-05T03:17:28.237Z,4.68
2022-09-05T03:20:32.587Z,5.18
2022-09-05T03:23:30.766Z,4.55
2022-09-05T03:26:33.741Z,3.70
2022-09-05T03:29:31.290Z,7.88
2022-09-05T03:32:42.238Z,6.10
2022-09-05T03:35:57.499Z,4.07
2022-09-05T03:38:58.906Z,4.78
2022-09-05T03:41:44.276Z,4.05
2022-09-05T03:44:21.069Z,6.22
2022-09-05T03:47:14.872Z,5.43
2022-09-05T03:53:53.688Z,6.57
2022-09-05T03:57:13.118Z,3.85
2022-09-05T03:57:27.547Z,7.55
2022-09-05T03:59:55.374Z,4.03
2022-09-05T04:05:15.211Z,4.57
2022-09-05T04:08:24.608Z,4.93
2022-09-05T04:08:33.988Z,4.60
2022-09-05T04:11:08.938Z,4.05
2022-09-05T04:13:41.116Z,8.00
2022-09-05T04:16:15.052Z,4.25
2022-09-05T04:18:50.290Z,11.00
2022-09-05T04:21:22.759Z,4.18
2022-09-05T04:24:03.481Z,5.35
2022-09-05T04:26:48.808Z,3.60
2022-09-05T04:29:21.724Z,6.40
2022-09-05T04:32:17.999Z,6.63
2022-09-05T04:35:03.940Z,8.02
2022-09-05T04:37:48.729Z,9.00
2022-09-05T04:40:39.247Z,8.73
2022-09-05T04:43:10.965Z,4.22
2022-09-05T04:45:44.910Z,9.15
2022-09-05T04:48:18.059Z,6.25
2022-09-05T04:51:06.712Z,4.00
2022-09-05T04:54:02.158Z,6.50
2022-09-05T04:56:34.422Z,5.60
2022-09-05T05:01:47.369Z,5.63
2022-09-05T05:06:04.050Z,4.40
2022-09-05T05:06:13.497Z,7.80
2022-09-05T05:07:50.982Z,6.78
2022-09-05T05:15:04.364Z,6.30
2022-09-05T05:18:03.359Z,4.70
2022-09-05T05:18:12.354Z,4.78
2022-09-05T05:19:18.641Z,9.63
2022-09-05T05:21:52.912Z,5.88
2022-09-05T05:24:27.787Z,6.70
2022-09-05T05:27:04.203Z,7.88
2022-09-05T05:29:43.237Z,7.07
2022-09-05T05:32:31.604Z,10.00
2022-09-05T05:35:11.856Z,5.03
2022-09-05T05:37:44.885Z,6.57
2022-09-05T05:40:25.529Z,8.63
2022-09-05T05:42:54.327Z,7.15
2022-09-05T05:45:27.739Z,12.07
2022-09-05T05:48:01.593Z,6.93
2022-09-05T05:50:39.598Z,20.83
2022-09-05T05:53:42.873Z,12.00
2022-09-05T05:56:39.038Z,7.30
2022-09-05T05:59:25.611Z,7.72
2022-09-05T06:02:32.727Z,11.75
2022-09-05T06:05:26.242Z,6.65
2022-09-05T06:09:26.779Z,10.02
2022-09-05T06:15:01.763Z,9.82
2022-09-05T06:15:10.442Z,14.13
2022-09-05T06:18:21.019Z,10.43
2022-09-05T06:22:07.051Z,11.75
2022-09-05T06:25:16.962Z,8.68
2022-09-05T06:28:17.777Z,6.55
2022-09-05T06:30:57.287Z,7.38
2022-09-05T06:33:54.881Z,7.05
2022-09-05T06:36:34.238Z,7.85
2022-09-05T06:39:12.782Z,12.98
2022-09-05T06:41:56.504Z,8.40
2022-09-05T06:44:38.204Z,7.63
2022-09-05T06:47:23.881Z,15.85
2022-09-05T06:56:05.216Z,10.18
2022-09-05T06:59:13.612Z,14.07
2022-09-05T07:02:00.415Z,10.40
2022-09-05T07:05:23.260Z,9.85
2022-09-05T07:07:28.514Z,10.55
2022-09-05T07:10:00.495Z,7.68
2022-09-05T07:12:31.881Z,11.55
2022-09-05T07:15:12.445Z,6.30
2022-09-05T07:18:13.217Z,7.53
2022-09-05T07:21:16.609Z,9.40
2022-09-05T07:24:06.155Z,9.82
2022-09-05T07:26:53.973Z,12.10
2022-09-05T07:29:30.435Z,10.98
2022-09-05T07:32:00.683Z,11.35
2022-09-05T07:34:31.824Z,15.00
2022-09-05T07:37:14.535Z,10.93
2022-09-05T07:39:47.717Z,8.90
2022-09-05T07:42:20.711Z,15.27
2022-09-05T07:44:56.524Z,14.95
2022-09-05T07:47:29.987Z,8.10
2022-09-05T07:50:47.255Z,8.35
2022-09-05T07:57:00.663Z,8.88
2022-09-05T07:57:02.367Z,11.90
2022-09-05T07:58:41.486Z,9.07
2022-09-05T08:01:12.678Z,8.00
2022-09-05T08:03:42.424Z,10.10
2022-09-05T08:06:22.798Z,10.75
2022-09-05T08:09:21.805Z,8.48
2022-09-05T08:12:09.397Z,9.45
2022-09-05T08:14:46.027Z,8.10
2022-09-05T08:17:18.838Z,7.88
2022-09-05T08:20:21.995Z,7.40
2022-09-05T08:23:00.085Z,6.38
2022-09-05T08:25:37.633Z,4.88
2022-09-05T08:28:39.631Z,8.32
2022-09-05T08:31:14.446Z,7.82
2022-09-05T08:33:43.556Z,4.35
2022-09-05T08:36:21.028Z,5.88
2022-09-05T08:38:51.071Z,9.00
2022-09-05T08:41:44.038Z,8.30
2022-09-05T08:46:40.602Z,4.60
2022-09-05T08:49:57.766Z,5.93
2022-09-05T08:52:36.188Z,4.82
2022-09-05T08:55:18.282Z,5.95
2022-09-05T08:58:18.845Z,3.72
2022-09-05T09:01:00.149Z,5.13
2022-09-05T09:03:35.128Z,8.27
2022-09-05T09:06:38.760Z,4.97
2022-09-05T09:09:14.323Z,7.72
2022-09-05T09:11:51.732Z,5.53
2022-09-05T09:14:52.908Z,5.50
2022-09-05T09:17:42.967Z,6.68
2022-09-05T09:20:33.485Z,8.00
2022-09-05T09:23:05.446Z,9.05
2022-09-05T09:25:40.340Z,6.53
2022-09-05T09:28:49.876Z,5.60
2022-09-05T09:31:37.490Z,5.13
2022-09-05T09:34:22.975Z,5.13
2022-09-05T09:37:08.341Z,4.82
2022-09-05T09:39:56.811Z,6.28
2022-09-05T09:42:38.523Z,5.97
2022-09-05T09:45:33.293Z,8.02
2022-09-05T09:48:27.012Z,6.88
2022-09-05T09:51:06.745Z,5.97
2022-09-05T09:53:46.051Z,6.28
2022-09-05T09:57:04.500Z,7.05
2022-09-05T10:00:02.841Z,7.60
2022-09-05T10:07:19.886Z,6.35
2022-09-05T10:10:48.637Z,5.75
2022-09-05T10:10:53.555Z,6.82
2022-09-05T10:12:24.541Z,5.07
2022-09-05T10:15:06.532Z,5.32
2022-09-05T10:18:31.444Z,2.92
2022-09-05T10:21:17.732Z,3.55
2022-09-05T10:24:26.770Z,3.67
2022-09-05T10:27:32.698Z,3.90
2022-09-05T10:30:11.095Z,4.32
2022-09-05T10:35:08.237Z,6.22
2022-09-05T10:35:37.485Z,3.78
2022-09-05T10:38:13.395Z,3.53
2022-09-05T10:41:19.765Z,3.15
2022-09-05T10:46:08.748Z,3.85
2022-09-05T10:48:52.903Z,3.80
2022-09-05T10:51:37.625Z,3.35
2022-09-05T10:54:25.169Z,3.90
2022-09-05T10:57:03.292Z,3.70
2022-09-05T11:01:59.356Z,3.63
2022-09-05T11:02:38.267Z,12.35
2022-09-05T11:05:16.256Z,4.80
2022-09-05T11:07:51.009Z,3.65
2022-09-05T11:10:25.445Z,4.00
2022-09-05T11:13:10.331Z,5.35
2022-09-05T11:16:04.662Z,4.13
2022-09-05T11:18:56.929Z,5.88
2022-09-05T11:21:46.471Z,2.63
2022-09-05T11:24:31.278Z,3.30
2022-09-05T11:27:24.948Z,8.43
2022-09-05T11:29:54.744Z,3.00
2022-09-05T11:39:48.260Z,3.55
2022-09-05T11:40:05.032Z,2.60
2022-09-05T11:42:08.316Z,5.88
2022-09-05T11:44:43.440Z,5.43
2022-09-05T11:47:46.041Z,2.75
2022-09-05T11:50:42.037Z,3.47
2022-09-05T11:53:38.781Z,4.57
2022-09-05T11:56:28.731Z,3.55
2022-09-05T11:59:33.869Z,4.10
2022-09-05T12:02:25.707Z,2.75
2022-09-05T12:05:49.561Z,2.95
2022-09-05T12:08:06.396Z,2.90
2022-09-05T12:10:49.349Z,2.40
2022-09-05T12:13:35.343Z,2.40
2022-09-05T12:16:19.319Z,2.70
2022-09-05T12:19:18.624Z,3.30
2022-09-05T12:22:08.956Z,2.67
2022-09-05T12:25:26.254Z,4.30
2022-09-05T12:28:28.889Z,4.38
2022-09-05T12:36:01.891Z,3.50
2022-09-05T12:40:44.540Z,6.75
2022-09-05T12:42:09.753Z,5.57
2022-09-05T12:42:34.440Z,7.43
2022-09-05T12:45:19.369Z,5.63
2022-09-05T12:48:05.650Z,3.65
2022-09-05T12:50:44.046Z,3.15
2022-09-05T12:53:18.478Z,5.63
2022-09-05T12:56:51.356Z,3.67
2022-09-05T13:02:57.088Z,3.13
2022-09-05T13:03:11.563Z,4.82
2022-09-05T13:04:32.306Z,3.45
2022-09-05T13:07:09.563Z,3.20
2022-09-05T13:10:14.265Z,3.95
2022-09-05T13:14:52.311Z,4.07
2022-09-05T13:15:32.854Z,2.35
2022-09-05T13:18:10.243Z,5.72
2022-09-05T13:20:45.706Z,4.85
2022-09-05T13:23:21.936Z,3.13
2022-09-05T13:25:58.955Z,4.80
2022-09-05T13:28:35.323Z,3.70
2022-09-05T13:37:53.870Z,2.60
2022-09-05T13:37:59.736Z,2.53
2022-09-05T13:38:11.852Z,2.42
2022-09-05T13:39:50.080Z,2.95
2022-09-05T13:42:21.219Z,2.50
2022-09-05T13:44:53.967Z,2.50
2022-09-05T13:47:52.538Z,2.55
2022-09-05T13:50:27.530Z,3.30
2022-09-05T13:53:02.325Z,2.00
2022-09-05T13:55:40.862Z,3.35
2022-09-05T13:58:16.824Z,3.58
2022-09-05T14:01:26.478Z,3.17
2022-09-05T14:08:17.972Z,2.40
2022-09-05T14:11:22.072Z,5.13
2022-09-05T14:14:11.044Z,2.25
2022-09-05T14:16:53.932Z,1.95
2022-09-05T14:19:43.233Z,3.28
2022-09-05T14:22:22.204Z,2.88
2022-09-05T14:24:55.726Z,3.50
2022-09-05T14:27:31.837Z,2.70
2022-09-05T14:30:49.031Z,4.20
2022-09-05T14:37:40.124Z,2.10
2022-09-05T14:37:48.704Z,5.95
2022-09-05T14:39:25.771Z,3.75
2022-09-05T14:42:12.272Z,2.30
2022-09-05T14:45:24.295Z,3.05
2022-09-05T14:51:25.705Z,2.80
2022-09-05T14:54:02.485Z,4.20
2022-09-05T15:00:05.349Z,2.70
2022-09-05T15:02:50.941Z,3.05
2022-09-05T15:02:51.035Z,2.55
2022-09-05T15:05:22.372Z,3.13
2022-09-05T15:07:55.302Z,2.88
2022-09-05T15:12:20.852Z,5.13
2022-09-05T15:13:25.648Z,3.45
2022-09-05T15:18:33.501Z,5.32
2022-09-05T15:21:33.097Z,2.50
2022-09-05T15:24:13.423Z,4.38
2022-09-05T15:26:52.539Z,2.40
2022-09-05T15:29:24.397Z,2.30
2022-09-05T15:32:08.926Z,4.38
2022-09-05T15:34:38.546Z,2.50
2022-09-05T15:37:23.447Z,2.88
2022-09-05T15:40:02.552Z,3.05
2022-09-05T15:42:32.789Z,2.47
2022-09-05T15:45:10.583Z,2.65
2022-09-05T15:47:42.422Z,5.13
2022-09-05T15:50:21.866Z,5.03
2022-09-05T15:52:55.684Z,6.68
2022-09-05T15:55:26.194Z,3.35
2022-09-05T15:57:56.447Z,3.22
2022-09-05T16:00:51.247Z,3.67
2022-09-05T16:06:10.725Z,3.30
2022-09-05T16:10:31.606Z,3.25
2022-09-05T16:10:57.821Z,4.10
2022-09-05T16:12:18.779Z,5.97
2022-09-05T16:15:45.256Z,3.30
2022-09-05T16:23:15.914Z,3.30
2022-09-05T16:23:30.678Z,7.38
2022-09-05T16:23:41.378Z,4.93
2022-09-05T16:26:25.230Z,5.07
2022-09-05T16:28:58.032Z,3.65
2022-09-05T16:31:38.778Z,2.10
2022-09-05T16:34:13.907Z,3.38
2022-09-05T16:36:53.199Z,3.50
2022-09-05T16:39:40.059Z,2.53
2022-09-05T16:42:46.227Z,4.80
2022-09-05T16:45:22.480Z,2.67
2022-09-05T16:47:57.258Z,3.80
2022-09-05T16:50:33.588Z,2.70
2022-09-05T16:53:30.229Z,3.22
2022-09-05T16:56:03.580Z,2.40
2022-09-05T16:58:38.307Z,3.63
2022-09-05T17:01:45.285Z,5.22
2022-09-05T17:04:20.803Z,2.72
2022-09-05T17:06:55.620Z,3.45
2022-09-05T17:09:26.413Z,4.65
2022-09-05T17:12:01.102Z,5.32
2022-09-05T17:14:35.365Z,3.88
2022-09-05T17:17:20.224Z,6.70
2022-09-05T17:20:06.689Z,5.40
2022-09-05T17:25:35.345Z,2.63
2022-09-05T17:29:26.605Z,3.65
2022-09-05T17:29:32.180Z,3.50
2022-09-05T17:31:53.577Z,9.70
2022-09-05T17:34:49.682Z,8.68
2022-09-05T17:37:43.267Z,9.18
2022-09-05T17:40:38.835Z,5.90
2022-09-05T17:43:10.910Z,6.55
2022-09-05T17:45:53.243Z,7.00
2022-09-05T17:49:19.077Z,6.13
2022-09-05T17:52:17.438Z,6.25
2022-09-05T17:54:50.266Z,5.35
2022-09-05T17:57:40.053Z,5.13
2022-09-05T18:00:40.543Z,7.93
2022-09-05T18:03:08.359Z,7.20
2022-09-05T18:06:01.144Z,8.60
2022-09-05T18:11:44.755Z,5.63
2022-09-05T18:14:42.862Z,3.30
2022-09-05T18:17:56.561Z,6.78
2022-09-05T18:20:33.354Z,5.97
2022-09-05T18:23:19.267Z,8.43
2022-09-05T18:26:03.257Z,10.07
2022-09-05T18:28:35.864Z,9.65
2022-09-05T18:31:43.512Z,7.50
2022-09-05T18:34:45.020Z,7.75
2022-09-05T18:38:00.139Z,6.88
2022-09-05T18:40:48.301Z,7.80
2022-09-05T18:43:29.025Z,7.75
2022-09-05T18:46:08.357Z,10.48
2022-09-05T18:48:59.653Z,10.25
2022-09-05T18:51:38.228Z,5.60
2022-09-05T18:57:26.777Z,21.25
2022-09-05T18:59:49.436Z,11.57
2022-09-05T19:02:26.642Z,13.75
2022-09-05T19:07:48.542Z,19.83
2022-09-05T19:10:34.956Z,10.38
2022-09-05T19:13:14.972Z,8.43
2022-09-05T19:15:52.898Z,8.63
2022-09-05T19:18:34.790Z,11.05
2022-09-05T19:21:12.571Z,10.10
2022-09-05T19:23:46.900Z,9.23
2022-09-05T19:26:14.918Z,12.48
2022-09-05T19:36:53.761Z,11.30
2022-09-05T19:36:59.857Z,15.00
2022-09-05T19:37:05.312Z,11.23
2022-09-05T19:37:28.994Z,8.23
2022-09-05T19:47:15.014Z,5.72
2022-09-05T19:47:35.380Z,6.63
2022-09-05T19:47:42.238Z,8.02
2022-09-05T19:48:34.940Z,5.80
2022-09-05T19:51:12.351Z,9.98
2022-09-05T19:54:01.322Z,7.22
2022-09-05T19:56:36.932Z,7.75
2022-09-05T19:59:17.351Z,9.38
2022-09-05T20:01:48.908Z,12.02
2022-09-05T20:04:18.861Z,14.50
2022-09-05T20:06:47.580Z,9.13
2022-09-05T20:09:18.057Z,12.68
2022-09-05T20:11:50.533Z,8.27
2022-09-05T20:14:22.110Z,10.38
2022-09-05T20:16:53.915Z,10.55
2022-09-05T20:19:28.698Z,7.40
2022-09-05T20:21:59.758Z,8.27
2022-09-05T20:24:42.524Z,7.63
2022-09-05T20:27:12.704Z,7.32
2022-09-05T20:29:55.578Z,7.82
2022-09-05T20:32:39.366Z,8.60
2022-09-05T20:37:55.868Z,9.00
2022-09-05T20:43:16.380Z,9.60
2022-09-05T20:43:32.447Z,7.40
2022-09-05T20:43:53.648Z,11.48
2022-09-05T20:50:15.670Z,17.25
2022-09-05T20:54:17.616Z,8.30
2022-09-05T20:54:27.756Z,6.95
2022-09-05T20:55:38.268Z,8.85
2022-09-05T20:58:09.449Z,6.47
2022-09-05T21:00:39.456Z,7.30
2022-09-05T21:03:09.194Z,9.20
2022-09-05T21:05:40.348Z,5.72
2022-09-05T21:08:31.197Z,6.30
2022-09-05T21:11:01.242Z,7.40
2022-09-05T21:13:32.048Z,8.68
2022-09-05T21:16:00.838Z,8.88
2022-09-05T21:18:33.730Z,4.38
2022-09-05T21:21:28.918Z,5.35
2022-09-05T21:24:17.433Z,5.20
2022-09-05T21:26:47.082Z,3.90
2022-09-05T21:29:17.618Z,3.83
2022-09-05T21:31:50.804Z,3.95
2022-09-05T21:34:26.185Z,3.50
2022-09-05T21:37:07.545Z,3.47
2022-09-05T21:39:40.122Z,7.88
2022-09-05T21:47:47.460Z,4.20
2022-09-05T21:47:52.024Z,5.15
2022-09-05T21:50:31.655Z,5.57
2022-09-05T21:53:37.926Z,5.20
2022-09-05T21:59:26.793Z,3.55
2022-09-05T21:59:28.484Z,6.43
2022-09-05T22:01:51.580Z,7.40
2022-09-05T22:04:19.285Z,10.25
2022-09-05T22:06:48.507Z,12.38
2022-09-05T22:09:18.353Z,10.90
2022-09-05T22:11:51.454Z,11.77
2022-09-05T22:14:19.864Z,6.60
2022-09-05T22:16:50.175Z,8.40
2022-09-05T22:19:33.986Z,7.05
2022-09-05T22:22:16.245Z,8.50
2022-09-05T22:24:49.184Z,8.77
2022-09-05T22:27:19.967Z,6.95
2022-09-05T22:29:50.783Z,5.53
2022-09-05T22:32:33.961Z,5.75
2022-09-05T22:35:27.641Z,4.47
2022-09-05T22:37:55.319Z,4.78
2022-09-05T22:40:29.319Z,4.05
2022-09-05T22:42:58.435Z,3.72
2022-09-05T22:45:26.367Z,4.60
2022-09-05T22:47:54.522Z,3.90
2022-09-05T22:50:23.260Z,4.85
2022-09-05T22:52:51.349Z,5.20
2022-09-05T22:55:19.562Z,5.45
2022-09-05T22:57:48.693Z,6.25
2022-09-05T23:00:16.850Z,6.55
2022-09-05T23:02:47.878Z,5.88
2022-09-05T23:05:18.150Z,9.45
2022-09-05T23:07:45.921Z,5.55
2022-09-05T23:10:13.750Z,9.88
2022-09-05T23:12:41.529Z,5.35
2022-09-05T23:15:11.742Z,4.35
2022-09-05T23:17:39.519Z,4.38
2022-09-05T23:20:08.845Z,7.72
2022-09-05T23:22:37.170Z,4.45
2022-09-05T23:25:05.660Z,7.88
2022-09-05T23:27:36.093Z,4.45
2022-09-05T23:30:04.623Z,4.40
2022-09-05T23:32:33.876Z,5.75
2022-09-05T23:35:01.754Z,5.15
2022-09-05T23:37:29.727Z,4.57
2022-09-05T23:39:57.992Z,4.47
2022-09-05T23:42:25.834Z,5.38
2022-09-05T23:44:53.689Z,4.40
2022-09-05T23:47:21.518Z,6.40
2022-09-05T23:49:50.690Z,5.13
2022-09-05T23:52:18.468Z,4.03
2022-09-05T23:54:46.277Z,5.82
2022-09-05T23:57:14.136Z,3.92
2022-09-05T23:59:41.883Z,6.68
